Hlavní strana
METAR-TAF:

METAR-TAF

Letiště :

Tena, Ekvádor

zeměpisná šířka: 01-03-35S, zeměpisná délka: 77-35-00W, výška: 376 m

Aktuální stav počasí

Zpráva byla vytvořena před 2 hodinami a 9 minutami, v 23:00 UTC
Severoseverozápadní vítr 2 kt
Teplota 27°C
Vlhkost vzduchu 79%
Tlak 1009 hPa
Polojasno ve výšce 3000 ft
Oblačno až skoro zataženo ve výšce 30000 ft

METAR: SEJD 252300Z 34002KT 999 SCT030 BKN300 27/23 Q1009 RMK A2979

Čas: 20:09 (01:09 UTC)


TAF: chybějící

Stav a předpovědi počasí z více než 4 000 letišť (zprávy METAR a TAF).

Červené a žluté tečky na mapě představují dostupné meteorologické stanice.

Když kurzor umístíte na tečku, zobrazí se název stanice.

Pak kliknutím zobrazíte stav a předpověď počasí.

Chcete-li změnit mapu, kliknutím na zelené tlačítko se znaménkem +mapu přiblížíte, kliknutím na zelené tlačítko se znaménkem – mapu oddálíte a kliknutím na zelené šipky přejdete na sousední mapy.


METAR-TAF: